createdAt,value
2022-11-16T00:01:54.455Z,100240.88
2022-11-16T00:04:30.121Z,100229.56
2022-11-16T00:07:02.877Z,100232.78
2022-11-16T00:09:39.733Z,100230.38
2022-11-16T00:12:24.792Z,100228.38
2022-11-16T00:15:07.844Z,100222.75
2022-11-16T00:17:41.486Z,100224.34
2022-11-16T00:20:20.441Z,100219.94
2022-11-16T00:22:50.863Z,100218.69
2022-11-16T00:25:26.754Z,100211.88
2022-11-16T00:28:00.252Z,100201.38
2022-11-16T00:30:46.386Z,100204.59
2022-11-16T00:33:21.305Z,100193.72
2022-11-16T00:35:56.360Z,100190.09
2022-11-16T00:38:29.236Z,100192.91
2022-11-16T00:41:01.947Z,100185.28
2022-11-16T00:43:35.761Z,100190.53
2022-11-16T00:46:13.690Z,100189.75
2022-11-16T00:48:46.684Z,100190.59
2022-11-16T00:51:24.849Z,100187.31
2022-11-16T00:54:07.345Z,100186.06
2022-11-16T00:56:46.947Z,100176.44
2022-11-16T00:59:28.947Z,100166.78
2022-11-16T01:02:01.874Z,100173.63
2022-11-16T01:04:40.754Z,100159.50
2022-11-16T01:07:13.408Z,100162.31
2022-11-16T01:09:45.051Z,100158.72
2022-11-16T01:12:26.238Z,100157.56
2022-11-16T01:14:54.064Z,100154.38
2022-11-16T01:17:34.367Z,100142.72
2022-11-16T01:20:08.434Z,100148.00
2022-11-16T01:22:44.416Z,100146.38
2022-11-16T01:25:18.885Z,100139.94
2022-11-16T01:27:54.229Z,100129.47
2022-11-16T01:30:34.863Z,100135.13
2022-11-16T01:33:23.667Z,100131.84
2022-11-16T01:36:03.024Z,100121.00
2022-11-16T01:38:43.900Z,100117.78
2022-11-16T01:41:20.087Z,100103.34
2022-11-16T01:44:27.857Z,100104.53
2022-11-16T01:47:14.543Z,100101.72
2022-11-16T01:50:03.758Z,100104.53
2022-11-16T01:52:45.567Z,100100.13
2022-11-16T01:55:22.848Z,100096.50
2022-11-16T01:58:21.944Z,100085.66
2022-11-16T02:00:59.766Z,100082.84
2022-11-16T02:03:44.954Z,100087.25
2022-11-16T02:06:28.900Z,100077.22
2022-11-16T02:09:55.841Z,100070.78
2022-11-16T02:12:42.975Z,100076.06
2022-11-16T02:15:28.806Z,100056.44
2022-11-16T02:18:35.873Z,100062.50
2022-11-16T02:21:36.936Z,100059.25
2022-11-16T02:24:35.017Z,100055.25
2022-11-16T02:27:37.840Z,100034.78
2022-11-16T02:30:11.033Z,100030.41
2022-11-16T02:33:10.441Z,100030.78
2022-11-16T02:36:14.152Z,100023.19
2022-11-16T02:39:02.016Z,100023.63
2022-11-16T02:41:42.712Z,100019.97
2022-11-16T02:44:55.075Z,100015.13
2022-11-16T02:47:31.852Z,100011.94
2022-11-16T02:50:15.404Z,100011.94
2022-11-16T02:52:48.160Z,100012.31
2022-11-16T02:55:29.021Z,100001.13
2022-11-16T02:58:09.843Z,100004.38
2022-11-16T03:01:00.030Z,100001.56
2022-11-16T03:03:41.709Z,100001.56
2022-11-16T03:06:24.467Z,100000.34
2022-11-16T03:09:12.004Z,100000.38
2022-11-16T03:12:01.886Z,99990.28
2022-11-16T03:15:04.613Z,99986.66
2022-11-16T03:17:50.306Z,99991.91
2022-11-16T03:20:30.221Z,99979.44
2022-11-16T03:23:14.189Z,99977.00
2022-11-16T03:25:56.046Z,99970.09
2022-11-16T03:28:51.956Z,99963.66
2022-11-16T03:31:31.173Z,99955.22
2022-11-16T03:34:06.997Z,99954.78
2022-11-16T03:36:46.218Z,99960.00
2022-11-16T03:39:26.240Z,99950.38
2022-11-16T03:42:14.017Z,99949.09
2022-11-16T03:44:53.698Z,99955.13
2022-11-16T03:47:25.975Z,99947.47
2022-11-16T03:50:08.058Z,99949.09
2022-11-16T03:52:44.110Z,99940.22
2022-11-16T03:55:25.024Z,99943.06
2022-11-16T03:57:59.172Z,99943.06
2022-11-16T04:00:36.024Z,99938.22
2022-11-16T04:03:12.878Z,99947.88
2022-11-16T04:06:04.517Z,99942.22
2022-11-16T04:08:55.953Z,99955.06
2022-11-16T04:11:45.344Z,99951.84
2022-11-16T04:14:35.882Z,99953.84
2022-11-16T04:17:29.249Z,99958.69
2022-11-16T04:20:24.825Z,99947.44
2022-11-16T04:23:24.782Z,99944.59
2022-11-16T04:26:01.055Z,99936.16
2022-11-16T04:28:43.313Z,99937.34
2022-11-16T04:31:35.245Z,99931.31
2022-11-16T04:34:31.499Z,99920.44
2022-11-16T04:37:24.615Z,99914.03
2022-11-16T04:40:08.880Z,99910.44
2022-11-16T04:42:43.109Z,99902.00
2022-11-16T04:45:38.914Z,99898.00
2022-11-16T04:48:10.398Z,99897.59
2022-11-16T04:50:42.277Z,99893.13
2022-11-16T04:53:17.399Z,99894.34
2022-11-16T04:56:02.242Z,99887.50
2022-11-16T04:58:39.124Z,99887.50
2022-11-16T05:01:07.460Z,99889.94
2022-11-16T05:03:58.579Z,99894.34
2022-11-16T05:06:31.827Z,99889.53
2022-11-16T05:09:09.255Z,99896.38
2022-11-16T05:11:48.972Z,99889.16
2022-11-16T05:14:21.470Z,99893.56
2022-11-16T05:16:57.700Z,99879.50
2022-11-16T05:19:46.631Z,99879.91
2022-11-16T05:22:20.371Z,99879.91
2022-11-16T05:24:57.973Z,99876.25
2022-11-16T05:27:35.224Z,99881.50
2022-11-16T05:30:12.199Z,99880.72
2022-11-16T05:32:48.165Z,99888.34
2022-11-16T05:35:28.375Z,99890.31
2022-11-16T05:38:03.315Z,99889.13
2022-11-16T05:40:48.312Z,99894.75
2022-11-16T05:43:28.997Z,99894.75
2022-11-16T05:46:11.848Z,99890.31
2022-11-16T05:48:45.476Z,99879.06
2022-11-16T05:51:22.296Z,99894.34
2022-11-16T05:53:56.113Z,99880.28
2022-11-16T05:56:33.250Z,99876.69
2022-11-16T05:59:17.882Z,99879.47
2022-11-16T06:02:16.634Z,99889.94
2022-11-16T06:04:52.370Z,99883.09
2022-11-16T06:07:30.548Z,99879.06
2022-11-16T06:10:19.162Z,99874.66
2022-11-16T06:12:55.374Z,99871.44
2022-11-16T06:15:34.108Z,99873.88
2022-11-16T06:18:11.322Z,99873.06
2022-11-16T06:20:51.104Z,99863.84
2022-11-16T06:23:38.451Z,99861.41
2022-11-16T06:26:11.849Z,99850.56
2022-11-16T06:28:48.233Z,99853.38
2022-11-16T06:31:24.363Z,99852.97
2022-11-16T06:34:05.316Z,99851.34
2022-11-16T06:36:47.461Z,99842.94
2022-11-16T06:39:23.859Z,99842.94
2022-11-16T06:41:59.774Z,99832.47
2022-11-16T06:44:36.907Z,99834.50
2022-11-16T06:47:17.737Z,99838.91
2022-11-16T06:49:47.270Z,99831.69
2022-11-16T06:52:20.732Z,99842.56
2022-11-16T06:54:51.017Z,99832.50
2022-11-16T06:57:18.916Z,99830.91
2022-11-16T06:59:56.653Z,99820.88
2022-11-16T07:02:30.397Z,99810.78
2022-11-16T07:05:09.465Z,99817.25
2022-11-16T07:07:48.998Z,99810.84
2022-11-16T07:10:21.471Z,99796.78
2022-11-16T07:12:57.580Z,99800.41
2022-11-16T07:15:25.598Z,99804.00
2022-11-16T07:17:55.742Z,99786.75
2022-11-16T07:20:27.208Z,99790.75
2022-11-16T07:22:58.412Z,99788.75
2022-11-16T07:25:27.241Z,99795.22
2022-11-16T07:28:00.994Z,99783.16
2022-11-16T07:30:29.134Z,99782.34
2022-11-16T07:33:07.041Z,99768.28
2022-11-16T07:36:18.144Z,99765.47
2022-11-16T07:38:49.093Z,99754.63
2022-11-16T07:41:24.779Z,99755.44
2022-11-16T07:44:21.595Z,99750.59
2022-11-16T07:47:05.253Z,99757.03
2022-11-16T07:49:39.178Z,99765.47
2022-11-16T07:52:29.880Z,99763.47
2022-11-16T07:55:12.359Z,99771.09
2022-11-16T07:57:50.358Z,99773.50
2022-11-16T08:00:25.506Z,99763.88
2022-11-16T08:03:09.292Z,99753.00
2022-11-16T08:05:40.641Z,99752.59
2022-11-16T08:08:14.842Z,99756.19
2022-11-16T08:10:43.563Z,99758.22
2022-11-16T08:13:17.600Z,99765.88
2022-11-16T08:15:51.144Z,99772.28
2022-11-16T08:18:22.589Z,99768.28
2022-11-16T08:20:54.400Z,99769.09
2022-11-16T08:23:26.385Z,99779.13
2022-11-16T08:26:02.614Z,99775.91
2022-11-16T08:28:37.364Z,99781.94
2022-11-16T08:31:20.716Z,99772.28
2022-11-16T08:33:56.979Z,99788.38
2022-11-16T08:36:31.019Z,99787.97
2022-11-16T08:39:07.375Z,99782.75
2022-11-16T08:41:38.837Z,99785.56
2022-11-16T08:44:16.668Z,99776.31
2022-11-16T08:46:49.256Z,99779.94
2022-11-16T08:49:49.369Z,99787.16
2022-11-16T08:52:31.057Z,99785.94
2022-11-16T08:55:18.693Z,99783.56
2022-11-16T08:57:54.158Z,99784.72
2022-11-16T09:00:29.114Z,99794.00
2022-11-16T09:03:05.049Z,99785.56
2022-11-16T09:05:39.000Z,99783.13
2022-11-16T09:08:12.111Z,99777.09
2022-11-16T09:10:41.284Z,99780.72
2022-11-16T09:13:12.198Z,99776.72
2022-11-16T09:15:49.183Z,99784.75
2022-11-16T09:18:23.031Z,99792.38
2022-11-16T09:20:54.495Z,99788.38
2022-11-16T09:23:29.140Z,99794.41
2022-11-16T09:26:08.239Z,99799.22
2022-11-16T09:28:39.215Z,99793.59
2022-11-16T09:31:16.553Z,99794.38
2022-11-16T09:33:51.432Z,99792.38
2022-11-16T09:36:20.928Z,99797.59
2022-11-16T09:39:25.950Z,99797.63
2022-11-16T09:42:08.508Z,99796.00
2022-11-16T09:45:04.965Z,99794.38
2022-11-16T09:47:49.493Z,99792.41
2022-11-16T09:50:39.562Z,99780.72
2022-11-16T09:53:34.253Z,99768.22
2022-11-16T09:56:20.646Z,99756.97
2022-11-16T09:59:00.598Z,99748.13
2022-11-16T10:01:44.469Z,99751.72
2022-11-16T10:04:26.766Z,99737.66
2022-11-16T10:07:04.543Z,99720.75
2022-11-16T10:09:38.524Z,99701.41
2022-11-16T10:12:23.175Z,99690.13
2022-11-16T10:15:13.346Z,99696.16
2022-11-16T10:18:00.091Z,99701.72
2022-11-16T10:20:50.565Z,99697.84
2022-11-16T10:23:41.800Z,99714.22
2022-11-16T10:26:23.641Z,99699.81
2022-11-16T10:29:15.598Z,99689.94
2022-11-16T10:31:52.852Z,99683.78
2022-11-16T10:34:31.685Z,99677.66
2022-11-16T10:37:08.600Z,99681.94
2022-11-16T10:39:47.979Z,99671.69
2022-11-16T10:42:36.707Z,99662.56
2022-11-16T10:45:35.358Z,99664.19
2022-11-16T10:48:37.646Z,99659.44
2022-11-16T10:51:10.861Z,99658.28
2022-11-16T10:53:44.394Z,99646.41
2022-11-16T10:56:32.772Z,99641.47
2022-11-16T10:59:04.217Z,99632.06
2022-11-16T11:01:47.986Z,99628.75
2022-11-16T11:04:24.900Z,99627.56
2022-11-16T11:06:55.543Z,99628.91
2022-11-16T11:09:30.002Z,99625.69
2022-11-16T11:12:42.338Z,99619.53
2022-11-16T11:15:27.289Z,99619.72
2022-11-16T11:18:19.882Z,99615.13
2022-11-16T11:21:19.613Z,99610.66
2022-11-16T11:24:06.147Z,99595.53
2022-11-16T11:27:01.870Z,99582.94
2022-11-16T11:29:42.012Z,99585.22
2022-11-16T11:32:34.087Z,99585.78
2022-11-16T11:35:32.619Z,99587.41
2022-11-16T11:38:08.546Z,99582.84
2022-11-16T11:41:02.583Z,99574.19
2022-11-16T11:43:37.809Z,99566.97
2022-11-16T11:46:08.860Z,99566.06
2022-11-16T11:48:58.788Z,99575.72
2022-11-16T11:51:40.767Z,99577.88
2022-11-16T11:54:23.648Z,99576.56
2022-11-16T11:56:57.387Z,99582.06
2022-11-16T11:59:36.644Z,99584.88
2022-11-16T12:02:17.228Z,99581.75
2022-11-16T12:05:16.702Z,99567.31
2022-11-16T12:08:06.279Z,99565.03
2022-11-16T12:10:52.836Z,99570.69
2022-11-16T12:13:39.852Z,99569.47
2022-11-16T12:16:26.880Z,99571.09
2022-11-16T12:19:24.569Z,99563.06
2022-11-16T12:22:03.171Z,99556.63
2022-11-16T12:24:57.348Z,99556.66
2022-11-16T12:27:36.662Z,99559.03
2022-11-16T12:30:19.491Z,99545.75
2022-11-16T12:33:13.735Z,99532.09
2022-11-16T12:35:41.665Z,99540.97
2022-11-16T12:38:54.190Z,99541.00
2022-11-16T12:41:46.964Z,99541.00
2022-11-16T12:44:35.600Z,99536.59
2022-11-16T12:47:32.671Z,99525.72
2022-11-16T12:50:28.819Z,99520.50
2022-11-16T12:53:12.553Z,99523.72
2022-11-16T12:56:16.007Z,99515.31
2022-11-16T12:59:16.379Z,99514.75
2022-11-16T13:02:15.694Z,99517.31
2022-11-16T13:05:21.874Z,99514.13
2022-11-16T13:08:00.583Z,99500.75
2022-11-16T13:10:43.133Z,99493.34
2022-11-16T13:13:39.363Z,99504.19
2022-11-16T13:16:10.428Z,99500.47
2022-11-16T13:18:45.519Z,99491.97
2022-11-16T13:21:41.961Z,99489.94
2022-11-16T13:24:29.297Z,99491.94
2022-11-16T13:27:19.087Z,99484.16
2022-11-16T13:30:05.292Z,99480.84
2022-11-16T13:33:02.453Z,99477.16
2022-11-16T13:35:37.184Z,99478.59
2022-11-16T13:38:12.645Z,99472.13
2022-11-16T13:40:42.562Z,99467.06
2022-11-16T13:43:14.403Z,99467.19
2022-11-16T13:46:00.789Z,99468.81
2022-11-16T13:48:35.740Z,99476.66
2022-11-16T13:51:08.101Z,99469.59
2022-11-16T13:56:54.268Z,99466.19
2022-11-16T13:59:38.975Z,99467.16
2022-11-16T14:02:46.833Z,99467.63
2022-11-16T14:05:41.037Z,99471.38
2022-11-16T14:08:21.125Z,99469.03
2022-11-16T14:10:53.480Z,99473.16
2022-11-16T14:13:44.546Z,99475.94
2022-11-16T14:16:21.944Z,99488.47
2022-11-16T14:19:00.713Z,99480.41
2022-11-16T14:22:03.403Z,99475.66
2022-11-16T14:24:37.013Z,99482.06
2022-11-16T14:27:26.424Z,99485.31
2022-11-16T14:30:10.099Z,99477.25
2022-11-16T14:32:52.576Z,99478.09
2022-11-16T14:35:31.602Z,99477.69
2022-11-16T14:38:07.722Z,99474.16
2022-11-16T14:41:22.483Z,99464.03
2022-11-16T14:44:00.437Z,99462.88
2022-11-16T14:46:42.717Z,99464.84
2022-11-16T14:49:20.720Z,99468.06
2022-11-16T14:52:02.347Z,99458.38
2022-11-16T14:54:34.938Z,99459.25
2022-11-16T14:57:07.064Z,99460.06
2022-11-16T14:59:40.146Z,99470.94
2022-11-16T15:02:37.594Z,99456.06
2022-11-16T15:05:18.252Z,99452.88
2022-11-16T15:07:52.081Z,99452.06
2022-11-16T15:10:29.663Z,99463.72
2022-11-16T15:13:02.662Z,99460.09
2022-11-16T15:15:32.304Z,99464.56
2022-11-16T15:18:03.866Z,99460.53
2022-11-16T15:20:38.594Z,99460.88
2022-11-16T15:23:17.216Z,99464.88
2022-11-16T15:26:02.559Z,99449.53
2022-11-16T15:28:37.698Z,99455.56
2022-11-16T15:31:17.155Z,99455.16
2022-11-16T15:33:47.096Z,99456.25
2022-11-16T15:36:41.409Z,99446.13
2022-11-16T15:39:26.725Z,99458.56
2022-11-16T15:42:03.282Z,99452.84
2022-11-16T15:44:33.628Z,99456.84
2022-11-16T15:47:12.037Z,99455.03
2022-11-16T15:49:44.691Z,99447.81
2022-11-16T15:52:13.739Z,99448.00
2022-11-16T15:55:03.845Z,99458.56
2022-11-16T15:57:35.807Z,99469.47
2022-11-16T16:00:25.233Z,99458.88
2022-11-16T16:03:18.489Z,99455.09
2022-11-16T16:05:53.294Z,99453.38
2022-11-16T16:08:35.796Z,99461.34
2022-11-16T16:11:33.916Z,99458.50
2022-11-16T16:14:07.806Z,99467.22
2022-11-16T16:16:39.808Z,99465.00
2022-11-16T16:19:36.949Z,99452.97
2022-11-16T16:22:16.017Z,99462.28
2022-11-16T16:24:59.302Z,99463.25
2022-11-16T16:27:54.619Z,99476.34
2022-11-16T16:31:04.540Z,99482.47
2022-11-16T16:33:40.289Z,99491.06
2022-11-16T16:36:20.652Z,99493.06
2022-11-16T16:38:55.076Z,99494.09
2022-11-16T16:41:24.753Z,99482.19
2022-11-16T16:43:57.684Z,99485.19
2022-11-16T16:46:31.816Z,99498.28
2022-11-16T16:49:03.652Z,99495.41
2022-11-16T16:51:32.044Z,99498.94
2022-11-16T16:54:13.311Z,99497.34
2022-11-16T16:56:47.051Z,99500.19
2022-11-16T16:59:18.558Z,99494.19
2022-11-16T17:01:52.820Z,99488.59
2022-11-16T17:04:27.656Z,99485.78
2022-11-16T17:06:58.909Z,99491.88
2022-11-16T17:09:30.351Z,99494.63
2022-11-16T17:11:58.733Z,99482.78
2022-11-16T17:14:37.011Z,99481.38
2022-11-16T17:17:13.822Z,99489.56
2022-11-16T17:19:47.845Z,99490.34
2022-11-16T17:22:19.683Z,99499.03
2022-11-16T17:24:49.610Z,99500.28
2022-11-16T17:27:27.216Z,99509.09
2022-11-16T17:29:55.880Z,99506.75
2022-11-16T17:32:30.242Z,99509.56
2022-11-16T17:35:02.547Z,99511.59
2022-11-16T17:37:34.360Z,99507.28
2022-11-16T17:40:02.965Z,99508.50
2022-11-16T17:42:35.831Z,99511.81
2022-11-16T17:45:10.286Z,99516.72
2022-11-16T17:47:39.393Z,99517.16
2022-11-16T17:50:14.043Z,99515.63
2022-11-16T17:52:45.908Z,99506.78
2022-11-16T17:55:19.479Z,99524.16
2022-11-16T17:57:48.806Z,99531.38
2022-11-16T18:00:22.520Z,99533.81
2022-11-16T18:02:56.241Z,99516.94
2022-11-16T18:05:25.308Z,99519.38
2022-11-16T18:07:58.048Z,99513.81
2022-11-16T18:10:29.261Z,99514.28
2022-11-16T18:12:59.475Z,99517.88
2022-11-16T18:15:28.978Z,99527.56
2022-11-16T18:18:04.244Z,99527.56
2022-11-16T18:20:40.278Z,99534.41
2022-11-16T18:23:08.437Z,99536.03
2022-11-16T18:25:37.151Z,99530.41
2022-11-16T18:28:08.315Z,99528.81
2022-11-16T18:30:40.377Z,99537.66
2022-11-16T18:33:08.975Z,99544.13
2022-11-16T18:35:37.119Z,99542.56
2022-11-16T18:38:13.104Z,99540.53
2022-11-16T18:40:47.149Z,99544.94
2022-11-16T18:43:18.295Z,99538.53
2022-11-16T18:45:52.006Z,99545.41
2022-11-16T18:48:19.637Z,99538.97
2022-11-16T18:50:47.868Z,99537.38
2022-11-16T18:53:21.475Z,99541.44
2022-11-16T18:55:58.261Z,99542.22
2022-11-16T19:01:26.631Z,99554.25
2022-11-16T19:04:01.810Z,99553.91
2022-11-16T19:06:37.960Z,99555.91
2022-11-16T19:09:10.423Z,99551.09
2022-11-16T19:11:38.502Z,99549.06
2022-11-16T19:14:09.620Z,99555.53
2022-11-16T19:16:41.885Z,99550.69
2022-11-16T19:19:15.738Z,99558.34
2022-11-16T19:21:49.623Z,99566.38
2022-11-16T19:24:23.222Z,99569.59
2022-11-16T19:26:52.247Z,99580.06
2022-11-16T19:29:21.640Z,99580.84
2022-11-16T19:31:55.273Z,99576.03
2022-11-16T19:34:33.188Z,99571.22
2022-11-16T19:37:06.683Z,99565.97
2022-11-16T19:39:37.771Z,99569.22
2022-11-16T19:42:06.127Z,99566.81
2022-11-16T19:44:38.682Z,99563.59
2022-11-16T19:47:07.545Z,99564.00
2022-11-16T19:49:38.574Z,99570.47
2022-11-16T19:52:12.865Z,99562.81
2022-11-16T19:54:43.789Z,99565.63
2022-11-16T19:57:15.861Z,99574.47
2022-11-16T19:59:49.216Z,99573.25
2022-11-16T20:02:19.650Z,99576.06
2022-11-16T20:04:53.612Z,99579.31
2022-11-16T20:07:24.722Z,99575.28
2022-11-16T20:09:55.348Z,99582.13
2022-11-16T20:12:25.716Z,99570.06
2022-11-16T20:14:56.194Z,99571.69
2022-11-16T20:17:27.547Z,99566.84
2022-11-16T20:19:59.343Z,99557.66
2022-11-16T20:22:34.216Z,99549.22
2022-11-16T20:25:05.265Z,99542.38
2022-11-16T20:27:35.921Z,99541.97
2022-11-16T20:30:10.178Z,99524.28
2022-11-16T20:32:41.597Z,99533.53
2022-11-16T20:35:16.181Z,99524.28
2022-11-16T20:37:51.506Z,99523.88
2022-11-16T20:40:24.782Z,99516.63
2022-11-16T20:43:02.189Z,99523.44
2022-11-16T20:45:35.144Z,99528.28
2022-11-16T20:48:08.302Z,99531.13
2022-11-16T20:50:37.489Z,99529.53
2022-11-16T20:53:08.521Z,99530.34
2022-11-16T20:55:39.320Z,99521.13
2022-11-16T20:58:09.674Z,99517.47
2022-11-16T21:00:40.897Z,99523.91
2022-11-16T21:03:09.280Z,99531.53
2022-11-16T21:05:53.301Z,99543.19
2022-11-16T21:08:26.881Z,99540.81
2022-11-16T21:10:54.705Z,99543.63
2022-11-16T21:13:46.220Z,99542.41
2022-11-16T21:16:16.707Z,99530.34
2022-11-16T21:18:50.180Z,99531.94
2022-11-16T21:21:25.579Z,99535.94
2022-11-16T21:23:56.577Z,99547.19
2022-11-16T21:26:36.804Z,99556.06
2022-11-16T21:29:09.949Z,99549.25
2022-11-16T21:31:40.903Z,99547.22
2022-11-16T21:34:08.877Z,99555.66
2022-11-16T21:36:42.523Z,99559.25
2022-11-16T21:39:13.647Z,99577.72
2022-11-16T21:41:44.146Z,99579.38
2022-11-16T21:44:15.078Z,99568.09
2022-11-16T21:46:46.095Z,99572.94
2022-11-16T21:49:19.761Z,99581.34
2022-11-16T21:51:50.216Z,99575.31
2022-11-16T21:54:43.580Z,99577.34
2022-11-16T21:57:15.874Z,99590.19
2022-11-16T21:59:47.026Z,99593.03
2022-11-16T22:02:18.036Z,99593.03
2022-11-16T22:05:09.290Z,99596.66
2022-11-16T22:07:40.472Z,99600.66
2022-11-16T22:10:13.762Z,99591.81
2022-11-16T22:12:45.776Z,99590.59
2022-11-16T22:15:19.628Z,99588.56
2022-11-16T22:17:59.215Z,99588.91
2022-11-16T22:20:30.967Z,99580.84
2022-11-16T22:23:01.542Z,99566.75
2022-11-16T22:25:39.771Z,99561.50
2022-11-16T22:28:25.208Z,99573.94
2022-11-16T22:31:06.886Z,99571.44
2022-11-16T22:33:38.868Z,99569.81
2022-11-16T22:36:16.470Z,99559.72
2022-11-16T22:38:50.862Z,99565.19
2022-11-16T22:41:21.712Z,99565.13
2022-11-16T22:43:55.551Z,99550.28
2022-11-16T22:46:25.427Z,99550.66
2022-11-16T22:48:58.301Z,99540.50
2022-11-16T22:51:39.190Z,99539.34
2022-11-16T22:54:15.511Z,99541.09
2022-11-16T22:56:43.963Z,99548.09
2022-11-16T22:59:16.040Z,99548.66
2022-11-16T23:01:47.552Z,99551.13
2022-11-16T23:04:20.994Z,99541.53
2022-11-16T23:06:51.970Z,99533.88
2022-11-16T23:09:20.123Z,99525.84
2022-11-16T23:12:09.052Z,99524.63
2022-11-16T23:15:03.195Z,99523.47
2022-11-16T23:17:40.078Z,99527.53
2022-11-16T23:20:30.646Z,99522.31
2022-11-16T23:23:22.603Z,99507.03
2022-11-16T23:26:09.290Z,99505.03
2022-11-16T23:28:49.370Z,99494.97
2022-11-16T23:31:18.869Z,99498.22
2022-11-16T23:33:57.785Z,99498.97
2022-11-16T23:36:28.968Z,99494.16
2022-11-16T23:39:08.462Z,99500.22
2022-11-16T23:41:55.682Z,99504.59
2022-11-16T23:44:29.249Z,99515.84
2022-11-16T23:46:57.871Z,99519.09
2022-11-16T23:49:31.257Z,99513.84
2022-11-16T23:52:03.662Z,99518.28
2022-11-16T23:54:34.439Z,99535.56
2022-11-16T23:57:03.715Z,99544.44
